createdAt,value
2017-11-23T00:00:12.810Z,9.50
2017-11-23T00:02:40.370Z,9.50
2017-11-23T00:05:07.945Z,9.50
2017-11-23T00:07:35.512Z,9.50
2017-11-23T00:10:03.054Z,9.50
2017-11-23T00:12:30.590Z,9.60
2017-11-23T00:14:58.186Z,9.70
2017-11-23T00:17:25.724Z,9.70
2017-11-23T00:19:53.272Z,9.80
2017-11-23T00:22:21.605Z,9.60
2017-11-23T00:24:49.158Z,9.60
2017-11-23T00:27:16.719Z,9.70
2017-11-23T00:29:44.246Z,9.60
2017-11-23T00:32:11.824Z,9.60
2017-11-23T00:34:39.369Z,9.50
2017-11-23T00:37:06.926Z,9.50
2017-11-23T00:39:34.492Z,9.60
2017-11-23T00:42:02.066Z,9.60
2017-11-23T00:44:29.598Z,9.60
2017-11-23T00:46:57.908Z,9.70
2017-11-23T00:49:25.464Z,9.60
2017-11-23T00:51:53.014Z,9.70
2017-11-23T00:54:20.571Z,9.70
2017-11-23T00:56:48.110Z,9.70
2017-11-23T00:59:16.458Z,9.70
2017-11-23T01:01:44.009Z,9.60
2017-11-23T01:04:12.323Z,9.70
2017-11-23T01:06:39.899Z,9.70
2017-11-23T01:09:08.221Z,9.70
2017-11-23T01:11:35.786Z,9.70
2017-11-23T01:14:03.350Z,9.70
2017-11-23T01:16:30.902Z,9.70
2017-11-23T01:18:58.465Z,9.70
2017-11-23T01:21:26.017Z,9.60
2017-11-23T01:23:53.560Z,9.70
2017-11-23T01:26:21.114Z,9.70
2017-11-23T01:28:49.428Z,9.70
2017-11-23T01:31:16.998Z,9.70
2017-11-23T01:33:44.534Z,9.70
2017-11-23T01:36:12.067Z,9.70
2017-11-23T01:38:40.412Z,9.80
2017-11-23T01:41:07.962Z,9.80
2017-11-23T01:43:35.512Z,9.80
2017-11-23T01:46:03.088Z,9.80
2017-11-23T01:48:30.623Z,9.80
2017-11-23T01:50:58.169Z,9.80
2017-11-23T01:53:25.726Z,9.80
2017-11-23T01:55:54.057Z,9.80
2017-11-23T01:58:21.617Z,9.70
2017-11-23T02:00:49.192Z,9.80
2017-11-23T02:03:16.735Z,9.70
2017-11-23T02:05:44.317Z,9.80
2017-11-23T02:08:11.874Z,9.80
2017-11-23T02:10:39.465Z,9.80
2017-11-23T02:13:07.786Z,9.90
2017-11-23T02:15:35.355Z,9.90
2017-11-23T02:18:02.931Z,9.90
2017-11-23T02:20:30.485Z,9.90
2017-11-23T02:22:58.040Z,9.80
2017-11-23T02:25:25.620Z,9.80
2017-11-23T02:27:53.165Z,9.90
2017-11-23T02:30:20.728Z,9.90
2017-11-23T02:32:48.294Z,10.00
2017-11-23T02:35:15.851Z,10.00
2017-11-23T02:37:43.414Z,10.00
2017-11-23T02:40:11.010Z,10.10
2017-11-23T02:42:38.580Z,10.10
2017-11-23T02:45:06.906Z,10.00
2017-11-23T02:47:34.456Z,10.00
2017-11-23T02:50:02.042Z,10.00
2017-11-23T02:52:29.588Z,10.10
2017-11-23T02:54:57.173Z,10.00
2017-11-23T02:57:25.483Z,10.00
2017-11-23T02:59:53.053Z,10.00
2017-11-23T03:02:21.408Z,9.90
2017-11-23T03:04:48.948Z,9.90
2017-11-23T03:07:16.512Z,10.00
2017-11-23T03:09:44.081Z,9.90
2017-11-23T03:12:11.620Z,9.90
2017-11-23T03:14:39.149Z,9.90
2017-11-23T03:17:07.510Z,10.10
2017-11-23T03:19:35.051Z,10.10
2017-11-23T03:22:02.603Z,10.10
2017-11-23T03:24:30.190Z,10.20
2017-11-23T03:26:57.734Z,10.20
2017-11-23T03:29:25.337Z,10.10
2017-11-23T03:31:53.647Z,10.10
2017-11-23T03:34:21.188Z,10.10
2017-11-23T03:36:49.532Z,10.10
2017-11-23T03:39:17.091Z,10.10
2017-11-23T03:41:44.641Z,10.10
2017-11-23T03:44:12.230Z,10.10
2017-11-23T03:46:39.785Z,10.10
2017-11-23T03:49:07.326Z,10.10
2017-11-23T03:51:34.912Z,10.20
2017-11-23T03:54:02.453Z,10.20
2017-11-23T03:56:29.997Z,10.30
2017-11-23T03:58:57.588Z,10.30
2017-11-23T04:01:25.145Z,10.30
2017-11-23T04:03:52.692Z,10.30
2017-11-23T04:06:20.266Z,10.30
2017-11-23T04:08:47.798Z,10.30
2017-11-23T04:11:15.334Z,10.30
2017-11-23T04:13:42.917Z,10.30
2017-11-23T04:16:10.493Z,10.30
2017-11-23T04:18:38.040Z,10.40
2017-11-23T04:21:05.592Z,10.50
2017-11-23T04:23:33.159Z,10.50
2017-11-23T04:26:00.714Z,10.50
2017-11-23T04:28:28.286Z,10.40
2017-11-23T04:30:55.829Z,10.40
2017-11-23T04:33:23.401Z,10.40
2017-11-23T04:35:50.992Z,10.40
2017-11-23T04:38:18.545Z,10.50
2017-11-23T04:40:46.098Z,10.50
2017-11-23T04:43:13.671Z,10.40
2017-11-23T04:45:41.234Z,10.40
2017-11-23T04:48:08.779Z,10.40
2017-11-23T04:50:36.349Z,10.40
2017-11-23T04:53:03.914Z,10.40
2017-11-23T04:55:31.479Z,10.40
2017-11-23T04:57:59.019Z,10.50
2017-11-23T05:00:26.581Z,10.60
2017-11-23T05:02:54.117Z,10.50
2017-11-23T05:05:22.429Z,10.60
2017-11-23T05:07:50.017Z,10.60
2017-11-23T05:10:17.592Z,10.60
2017-11-23T05:12:45.150Z,10.60
2017-11-23T05:15:12.715Z,10.60
2017-11-23T05:17:40.264Z,10.60
2017-11-23T05:20:07.822Z,10.60
2017-11-23T05:22:35.375Z,10.60
2017-11-23T05:25:02.911Z,10.60
2017-11-23T05:27:30.471Z,10.60
2017-11-23T05:29:58.027Z,10.50
2017-11-23T05:32:26.358Z,10.60
2017-11-23T05:34:54.680Z,10.60
2017-11-23T05:37:22.969Z,10.50
2017-11-23T05:39:50.549Z,10.50
2017-11-23T05:42:18.101Z,10.50
2017-11-23T05:44:45.635Z,10.50
2017-11-23T05:47:13.985Z,10.50
2017-11-23T05:49:41.546Z,10.50
2017-11-23T05:52:09.109Z,10.50
2017-11-23T05:54:36.672Z,10.60
2017-11-23T05:57:04.199Z,10.60
2017-11-23T05:59:31.754Z,10.60
2017-11-23T06:01:59.301Z,10.70
2017-11-23T06:04:27.600Z,10.70
2017-11-23T06:06:55.163Z,10.60
2017-11-23T06:09:22.721Z,10.70
2017-11-23T06:11:50.282Z,10.70
2017-11-23T06:14:17.842Z,10.80
2017-11-23T06:16:45.378Z,10.90
2017-11-23T06:19:13.717Z,11.20
2017-11-23T06:21:41.268Z,11.10
2017-11-23T06:24:08.810Z,11.20
2017-11-23T06:26:36.375Z,11.30
2017-11-23T06:29:03.953Z,11.40
2017-11-23T06:31:31.486Z,11.50
2017-11-23T06:33:59.055Z,11.40
2017-11-23T06:36:26.600Z,11.50
2017-11-23T06:38:54.912Z,11.70
2017-11-23T06:41:22.478Z,11.60
2017-11-23T06:43:50.019Z,11.70
2017-11-23T06:46:17.556Z,11.70
2017-11-23T06:48:45.904Z,11.70
2017-11-23T06:51:13.458Z,11.60
2017-11-23T06:53:41.026Z,11.70
2017-11-23T06:56:08.607Z,11.70
2017-11-23T06:58:36.134Z,11.70
2017-11-23T07:01:03.676Z,11.70
2017-11-23T07:03:31.256Z,11.70
2017-11-23T07:05:58.792Z,11.70
2017-11-23T07:08:26.341Z,11.80
2017-11-23T07:10:53.924Z,11.80
2017-11-23T07:13:21.477Z,11.90
2017-11-23T07:15:49.028Z,12.00
2017-11-23T07:18:16.614Z,12.10
2017-11-23T07:20:44.153Z,12.00
2017-11-23T07:23:11.701Z,12.00
2017-11-23T07:25:40.041Z,12.10
2017-11-23T07:28:07.594Z,12.00
2017-11-23T07:30:35.153Z,12.10
2017-11-23T07:33:02.733Z,12.10
2017-11-23T07:35:30.285Z,12.10
2017-11-23T07:37:57.826Z,12.10
2017-11-23T07:40:25.412Z,12.10
2017-11-23T07:42:52.965Z,12.10
2017-11-23T07:45:20.503Z,12.10
2017-11-23T07:47:48.086Z,12.20
2017-11-23T07:50:15.613Z,12.20
2017-11-23T07:52:43.146Z,12.30
2017-11-23T07:55:11.497Z,12.30
2017-11-23T07:57:39.032Z,12.30
2017-11-23T08:00:06.566Z,12.30
2017-11-23T08:02:34.898Z,12.40
2017-11-23T08:05:02.425Z,12.40
2017-11-23T08:07:29.980Z,12.30
2017-11-23T08:09:57.546Z,12.30
2017-11-23T08:12:25.084Z,12.10
2017-11-23T08:14:53.392Z,12.10
2017-11-23T08:17:20.956Z,12.10
2017-11-23T08:19:48.504Z,12.10
2017-11-23T08:22:16.053Z,12.10
2017-11-23T08:24:44.411Z,12.20
2017-11-23T08:27:11.954Z,12.10
2017-11-23T08:29:39.513Z,12.20
2017-11-23T08:32:07.866Z,12.30
2017-11-23T08:34:35.399Z,12.30
2017-11-23T08:37:03.697Z,12.60
2017-11-23T08:39:31.259Z,12.60
2017-11-23T08:41:58.792Z,12.80
2017-11-23T08:44:27.096Z,12.90
2017-11-23T08:46:54.640Z,12.90
2017-11-23T08:49:22.164Z,12.90
2017-11-23T08:51:49.686Z,12.90
2017-11-23T08:54:17.233Z,12.90
2017-11-23T08:56:46.558Z,12.90
2017-11-23T08:59:14.088Z,13.00
2017-11-23T09:01:41.703Z,13.00
2017-11-23T09:04:09.246Z,13.10
2017-11-23T09:06:36.769Z,13.10
2017-11-23T09:09:05.090Z,13.10
2017-11-23T09:11:32.617Z,13.10
2017-11-23T09:14:00.914Z,13.20
2017-11-23T09:16:29.351Z,13.20
2017-11-23T09:18:56.887Z,13.20
2017-11-23T09:21:24.423Z,13.20
2017-11-23T09:23:52.000Z,13.20
2017-11-23T09:26:19.557Z,13.30
2017-11-23T09:28:47.104Z,13.30
2017-11-23T09:31:18.674Z,13.20
2017-11-23T09:33:46.220Z,13.30
2017-11-23T09:36:13.801Z,13.20
2017-11-23T09:38:41.366Z,13.30
2017-11-23T09:41:08.904Z,13.30
2017-11-23T09:43:36.446Z,13.40
2017-11-23T09:46:04.808Z,13.40
2017-11-23T09:48:33.601Z,13.40
2017-11-23T09:51:02.189Z,13.40
2017-11-23T09:53:30.547Z,13.30
2017-11-23T09:55:58.101Z,13.30
2017-11-23T09:58:25.652Z,13.30
2017-11-23T10:00:53.210Z,13.30
2017-11-23T10:03:20.771Z,13.40
2017-11-23T10:05:48.324Z,13.40
2017-11-23T10:08:15.924Z,13.40
2017-11-23T10:10:44.990Z,13.40
2017-11-23T10:13:12.541Z,13.40
2017-11-23T10:15:46.799Z,13.40
2017-11-23T10:18:14.354Z,13.40
2017-11-23T10:20:42.112Z,13.50
2017-11-23T10:23:09.693Z,13.40
2017-11-23T10:25:37.245Z,13.50
2017-11-23T10:28:06.310Z,13.50
2017-11-23T10:30:33.879Z,13.50
2017-11-23T10:33:01.439Z,13.60
2017-11-23T10:35:28.998Z,13.60
2017-11-23T10:37:56.599Z,13.60
2017-11-23T10:40:24.171Z,13.70
2017-11-23T10:42:51.726Z,13.60
2017-11-23T10:45:19.303Z,13.60
2017-11-23T10:47:53.576Z,13.20
2017-11-23T10:50:21.178Z,13.20
2017-11-23T10:52:48.707Z,13.10
2017-11-23T10:55:16.240Z,13.00
2017-11-23T10:57:43.808Z,13.00
2017-11-23T11:00:11.346Z,13.00
2017-11-23T11:02:38.895Z,12.90
2017-11-23T11:05:07.228Z,12.90
2017-11-23T11:07:34.767Z,12.80
2017-11-23T11:10:02.317Z,12.90
2017-11-23T11:12:29.904Z,12.90
2017-11-23T11:14:57.439Z,12.90
2017-11-23T11:17:24.998Z,12.80
2017-11-23T11:19:52.594Z,12.70
2017-11-23T11:22:20.147Z,12.70
2017-11-23T11:24:47.697Z,12.70
2017-11-23T11:27:15.273Z,12.60
2017-11-23T11:29:42.829Z,12.70
2017-11-23T11:32:10.363Z,12.70
2017-11-23T11:34:38.691Z,12.90
2017-11-23T11:37:06.225Z,12.90
2017-11-23T11:39:33.777Z,13.00
2017-11-23T11:42:01.363Z,13.10
2017-11-23T11:44:28.909Z,13.20
2017-11-23T11:46:56.441Z,13.30
2017-11-23T11:49:24.803Z,13.60
2017-11-23T11:51:52.340Z,13.60
2017-11-23T11:54:19.878Z,13.70
2017-11-23T11:56:47.461Z,13.90
2017-11-23T11:59:14.999Z,14.00
2017-11-23T12:01:42.562Z,14.10
2017-11-23T12:04:10.153Z,14.00
2017-11-23T12:06:37.695Z,14.00
2017-11-23T12:09:05.246Z,14.00
2017-11-23T12:11:32.827Z,14.00
2017-11-23T12:14:12.324Z,13.90
2017-11-23T12:16:52.447Z,14.10
2017-11-23T12:19:20.718Z,14.00
2017-11-23T12:21:54.115Z,14.10
2017-11-23T12:24:29.946Z,14.20
2017-11-23T12:26:57.531Z,14.20
2017-11-23T12:29:36.909Z,14.20
2017-11-23T12:32:05.295Z,14.30
2017-11-23T12:34:33.625Z,14.30
2017-11-23T12:37:01.203Z,14.20
2017-11-23T12:39:28.789Z,14.30
2017-11-23T12:41:57.114Z,14.30
2017-11-23T12:44:24.666Z,14.20
2017-11-23T12:46:52.253Z,14.30
2017-11-23T12:49:19.791Z,14.30
2017-11-23T12:51:47.371Z,14.40
2017-11-23T12:54:14.950Z,14.50
2017-11-23T12:56:42.505Z,14.40
2017-11-23T12:59:10.072Z,14.40
2017-11-23T13:01:37.632Z,14.40
2017-11-23T13:04:05.220Z,14.40
2017-11-23T13:06:32.764Z,14.30
2017-11-23T13:09:00.311Z,14.30
2017-11-23T13:11:27.884Z,14.30
2017-11-23T13:13:55.449Z,14.30
2017-11-23T13:16:23.000Z,14.20
2017-11-23T13:18:50.580Z,14.20
2017-11-23T13:21:18.141Z,14.20
2017-11-23T13:23:45.701Z,14.20
2017-11-23T13:26:13.262Z,14.20
2017-11-23T13:28:40.798Z,14.20
2017-11-23T13:31:08.358Z,14.20
2017-11-23T13:33:35.914Z,14.20
2017-11-23T13:36:03.450Z,14.20
2017-11-23T13:38:31.018Z,14.30
2017-11-23T13:40:58.573Z,14.30
2017-11-23T13:43:26.138Z,14.40
2017-11-23T13:45:53.678Z,14.40
2017-11-23T13:48:21.986Z,14.40
2017-11-23T13:50:49.571Z,14.40
2017-11-23T13:53:17.127Z,14.50
2017-11-23T13:55:44.684Z,14.40
2017-11-23T13:58:12.227Z,14.40
2017-11-23T14:00:39.821Z,14.30
2017-11-23T14:03:07.374Z,14.30
2017-11-23T14:05:34.936Z,14.30
2017-11-23T14:08:02.937Z,14.40
2017-11-23T14:10:30.482Z,14.40
2017-11-23T14:12:58.037Z,14.30
2017-11-23T14:15:25.617Z,14.30
2017-11-23T14:17:53.169Z,14.30
2017-11-23T14:20:20.733Z,14.30
2017-11-23T14:22:48.300Z,14.30
2017-11-23T14:25:15.857Z,14.30
2017-11-23T14:27:43.402Z,14.30
2017-11-23T14:30:10.981Z,14.20
2017-11-23T14:32:38.532Z,14.30
2017-11-23T14:35:06.107Z,14.30
2017-11-23T14:37:33.688Z,14.30
2017-11-23T14:40:01.237Z,14.30
2017-11-23T14:42:31.639Z,14.30
2017-11-23T14:44:59.170Z,14.20
2017-11-23T14:47:27.484Z,14.20
2017-11-23T14:49:55.040Z,14.20
2017-11-23T14:52:22.570Z,14.20
2017-11-23T14:54:50.908Z,14.20
2017-11-23T14:57:18.465Z,14.20
2017-11-23T14:59:46.039Z,14.20
2017-11-23T15:02:13.597Z,14.20
2017-11-23T15:04:41.142Z,14.20
2017-11-23T15:07:08.705Z,14.30
2017-11-23T15:09:36.254Z,14.30
2017-11-23T15:12:03.824Z,14.30
2017-11-23T15:14:31.375Z,14.30
2017-11-23T15:16:58.952Z,14.30
2017-11-23T15:19:26.532Z,14.40
2017-11-23T15:21:54.080Z,14.30
2017-11-23T15:24:21.616Z,14.30
2017-11-23T15:26:49.178Z,14.30
2017-11-23T15:29:16.712Z,14.10
2017-11-23T15:31:44.249Z,13.20
2017-11-23T15:34:11.810Z,12.40
2017-11-23T15:36:39.347Z,11.90
2017-11-23T15:39:06.910Z,11.60
2017-11-23T15:41:34.473Z,11.40
2017-11-23T15:44:02.015Z,11.20
2017-11-23T15:46:29.575Z,11.00
2017-11-23T15:48:57.122Z,10.90
2017-11-23T15:51:24.681Z,10.90
2017-11-23T15:53:52.262Z,10.80
2017-11-23T15:56:19.820Z,10.80
2017-11-23T15:58:47.351Z,10.80
2017-11-23T16:01:14.956Z,10.80
2017-11-23T16:03:42.509Z,10.80
2017-11-23T16:06:10.052Z,10.70
2017-11-23T16:08:37.624Z,10.70
2017-11-23T16:11:05.183Z,10.60
2017-11-23T16:13:32.766Z,10.60
2017-11-23T16:16:00.318Z,10.60
2017-11-23T16:18:27.898Z,10.60
2017-11-23T16:20:55.501Z,10.60
2017-11-23T16:23:23.818Z,10.70
2017-11-23T16:25:51.362Z,10.70
2017-11-23T16:28:18.955Z,10.80
2017-11-23T16:30:47.298Z,10.80
2017-11-23T16:33:14.837Z,10.80
2017-11-23T16:35:42.420Z,10.80
2017-11-23T16:41:16.353Z,10.80
2017-11-23T16:43:49.554Z,10.80
2017-11-23T16:49:26.302Z,10.60
2017-11-23T16:52:01.411Z,10.60
2017-11-23T16:54:34.729Z,10.60
2017-11-23T17:00:23.290Z,10.60
2017-11-23T17:06:01.015Z,10.70
2017-11-23T17:08:31.305Z,10.70
2017-11-23T17:11:05.363Z,10.70
2017-11-23T17:16:49.446Z,10.50
2017-11-23T17:19:17.864Z,10.50
2017-11-23T17:21:46.162Z,10.50
2017-11-23T17:24:13.719Z,10.50
2017-11-23T17:26:41.301Z,10.50
2017-11-23T17:29:08.874Z,10.50
2017-11-23T17:31:36.417Z,10.50
2017-11-23T17:34:04.017Z,10.50
2017-11-23T17:36:31.555Z,10.60
2017-11-23T17:38:59.105Z,10.60
2017-11-23T17:41:26.684Z,10.60
2017-11-23T17:43:54.223Z,10.60
2017-11-23T17:46:21.763Z,10.60
2017-11-23T17:48:50.104Z,10.70
2017-11-23T17:51:17.670Z,10.70
2017-11-23T17:53:45.234Z,10.70
2017-11-23T17:56:12.804Z,10.70
2017-11-23T17:58:40.338Z,10.70
2017-11-23T18:01:07.883Z,10.80
2017-11-23T18:03:35.447Z,10.70
2017-11-23T18:06:03.015Z,10.70
2017-11-23T18:08:30.577Z,10.60
2017-11-23T18:10:58.156Z,10.60
2017-11-23T18:13:25.690Z,10.50
2017-11-23T18:15:53.241Z,10.50
2017-11-23T18:18:20.822Z,10.60
2017-11-23T18:20:48.373Z,10.70
2017-11-23T18:23:15.914Z,10.80
2017-11-23T18:25:44.240Z,10.80
2017-11-23T18:28:11.784Z,10.80
2017-11-23T18:30:39.354Z,10.90
2017-11-23T18:33:06.889Z,11.00
2017-11-23T18:35:34.449Z,11.00
2017-11-23T18:38:02.045Z,11.00
2017-11-23T18:40:29.585Z,11.00
2017-11-23T18:42:57.121Z,11.00
2017-11-23T18:45:25.459Z,11.00
2017-11-23T18:47:53.015Z,11.00
2017-11-23T18:50:20.581Z,11.00
2017-11-23T18:52:48.159Z,11.00
2017-11-23T18:57:49.596Z,10.90
2017-11-23T19:00:17.132Z,10.90
2017-11-23T19:02:44.685Z,10.90
2017-11-23T19:05:13.049Z,10.70
2017-11-23T19:07:41.375Z,10.80
2017-11-23T19:10:08.931Z,10.70
2017-11-23T19:12:36.513Z,10.80
2017-11-23T19:15:04.097Z,10.70
2017-11-23T19:17:31.678Z,10.60
2017-11-23T19:20:00.029Z,10.50
2017-11-23T19:22:27.564Z,10.50
2017-11-23T19:24:55.102Z,10.40
2017-11-23T19:27:22.670Z,10.40
2017-11-23T19:29:50.206Z,10.40
2017-11-23T19:32:18.510Z,10.30
2017-11-23T19:34:46.073Z,10.30
2017-11-23T19:37:13.618Z,10.30
2017-11-23T19:39:41.940Z,10.30
2017-11-23T19:42:09.529Z,10.30
2017-11-23T19:44:37.071Z,10.30
2017-11-23T19:47:04.640Z,10.30
2017-11-23T19:49:32.209Z,10.30
2017-11-23T19:51:59.765Z,10.20
2017-11-23T19:54:27.326Z,10.20
2017-11-23T19:56:54.910Z,10.10
2017-11-23T19:59:22.441Z,10.00
2017-11-23T20:01:49.971Z,10.00
2017-11-23T20:04:17.564Z,10.00
2017-11-23T20:06:45.121Z,10.00
2017-11-23T20:09:12.697Z,10.00
2017-11-23T20:11:40.280Z,9.90
2017-11-23T20:14:07.832Z,9.80
2017-11-23T20:16:35.381Z,9.90
2017-11-23T20:19:02.942Z,9.80
2017-11-23T20:21:30.485Z,9.80
2017-11-23T20:23:58.023Z,9.80
2017-11-23T20:26:25.590Z,9.70
2017-11-23T20:28:53.125Z,9.70
2017-11-23T20:31:21.463Z,9.50
2017-11-23T20:33:49.017Z,9.50
2017-11-23T20:36:16.592Z,9.50
2017-11-23T20:38:44.140Z,9.50
2017-11-23T20:41:11.679Z,9.40
2017-11-23T20:43:39.247Z,9.50
2017-11-23T20:46:06.785Z,9.40
2017-11-23T20:48:34.343Z,9.40
2017-11-23T20:51:01.908Z,9.50
2017-11-23T20:53:29.464Z,9.40
2017-11-23T20:55:57.772Z,9.40
2017-11-23T20:58:25.353Z,9.40
2017-11-23T21:00:52.913Z,9.40
2017-11-23T21:03:20.454Z,9.20
2017-11-23T21:05:48.032Z,9.10
2017-11-23T21:08:15.608Z,9.00
2017-11-23T21:10:43.809Z,9.00
2017-11-23T21:13:11.463Z,8.90
2017-11-23T21:15:39.034Z,9.00
2017-11-23T21:18:06.594Z,8.90
2017-11-23T21:20:34.189Z,8.90
2017-11-23T21:23:01.730Z,8.90
2017-11-23T21:25:30.061Z,8.80
2017-11-23T21:27:57.658Z,8.80
2017-11-23T21:30:25.200Z,8.90
2017-11-23T21:32:52.755Z,8.90
2017-11-23T21:35:20.322Z,9.00
2017-11-23T21:37:47.887Z,9.00
2017-11-23T21:40:15.432Z,9.00
2017-11-23T21:42:43.008Z,9.00
2017-11-23T21:45:10.564Z,8.90
2017-11-23T21:47:38.112Z,8.90
2017-11-23T21:50:05.681Z,8.80
2017-11-23T21:52:33.233Z,8.80
2017-11-23T21:55:00.821Z,8.70
2017-11-23T21:57:28.363Z,8.80
2017-11-23T21:59:55.912Z,8.80
2017-11-23T22:02:23.489Z,8.80
2017-11-23T22:04:51.027Z,8.80
2017-11-23T22:07:18.586Z,8.80
2017-11-23T22:09:46.156Z,8.80
2017-11-23T22:12:13.697Z,8.80
2017-11-23T22:14:42.015Z,8.80
2017-11-23T22:17:09.594Z,8.70
2017-11-23T22:19:37.168Z,8.80
2017-11-23T22:22:04.708Z,8.80
2017-11-23T22:24:32.292Z,8.90
2017-11-23T22:26:59.846Z,9.00
2017-11-23T22:29:27.380Z,8.90
2017-11-23T22:31:54.970Z,9.00
2017-11-23T22:34:22.524Z,9.00
2017-11-23T22:36:50.051Z,8.90
2017-11-23T22:39:17.653Z,8.80
2017-11-23T22:41:45.194Z,8.70
2017-11-23T22:44:12.745Z,8.70
2017-11-23T22:46:40.340Z,8.80
2017-11-23T22:49:07.896Z,8.80
2017-11-23T22:51:35.441Z,8.80
2017-11-23T22:54:03.011Z,8.80
2017-11-23T22:56:30.581Z,8.90
2017-11-23T22:58:58.137Z,9.00
2017-11-23T23:01:25.713Z,9.00
2017-11-23T23:03:53.258Z,9.00
2017-11-23T23:06:20.798Z,9.10
2017-11-23T23:08:48.385Z,9.10
2017-11-23T23:11:15.950Z,9.10
2017-11-23T23:13:43.495Z,9.00
2017-11-23T23:16:11.078Z,9.00
2017-11-23T23:18:38.620Z,8.90
2017-11-23T23:21:06.215Z,8.80
2017-11-23T23:23:33.756Z,8.90
2017-11-23T23:26:01.292Z,8.90
2017-11-23T23:28:28.855Z,8.90
2017-11-23T23:30:56.395Z,9.00
2017-11-23T23:33:23.967Z,9.00
2017-11-23T23:35:51.510Z,9.10
2017-11-23T23:38:19.818Z,9.00
2017-11-23T23:40:47.404Z,9.00
2017-11-23T23:43:14.960Z,9.10
2017-11-23T23:45:42.509Z,9.10
2017-11-23T23:48:10.077Z,9.10
2017-11-23T23:50:37.616Z,9.00
2017-11-23T23:53:05.159Z,9.00
2017-11-23T23:55:33.522Z,9.10
2017-11-23T23:58:01.095Z,9.10
